NM5I Weather Reports


Display with metric or nautical units.
time (UTC)temp
F
wind
direction
speed
MPH
gust
MPH
rain 1hr
in
rain 24hr
in
rain mn
in
humidity
%
barometer
mb
20210924223343 83 132 0.0 3.0 0.00 0.00 0.00 42 1016.1
20210924222326 84 244 0.0 4.0 0.00 0.00 0.00 41 1016.0
20210924220357 85 263 2.0 6.0 0.00 0.00 0.00 35 1016.1
20210924215345 87 95 2.0 7.0 0.00 0.00 0.00 33 1016.0
20210924214323 87 186 1.0 5.0 0.00 0.00 0.00 35 1016.1
20210924213422 87 217 1.0 3.0 0.00 0.00 0.00 34 1016.2
20210924212402 87 248 2.0 4.0 0.00 0.00 0.00 34 1016.1
20210924211349 87 264 1.0 4.0 0.00 0.00 0.00 34 1016.3
20210924210327 86 284 1.0 3.0 0.00 0.00 0.00 36 1016.3
20210924205418 85 271 1.0 3.0 0.00 0.00 0.00 36 1016.3
20210924204355 85 205 1.0 4.0 0.00 0.00 0.00 36 1016.5
20210924203327 84 239 1.0 7.0 0.00 0.00 0.00 37 1016.5
20210924202418 85 257 2.0 8.0 0.00 0.00 0.00 37 1016.6
20210924201354 85 254 2.0 8.0 0.00 0.00 0.00 37 1016.6
20210924200328 85 263 2.0 5.0 0.00 0.00 0.00 38 1016.7
20210924195357 85 80 0.0 4.0 0.00 0.00 0.00 38 1016.8
20210924194323 84 290 2.0 5.0 0.00 0.00 0.00 39 1017.1
20210924193415 83 155 2.0 6.0 0.00 0.00 0.00 39 1017.2
20210924192350 83 311 2.0 7.0 0.00 0.00 0.00 41 1017.5
20210924191346 83 251 3.0 7.0 0.00 0.00 0.00 39 1017.7
20210924190330 82 67 2.0 4.0 0.00 0.00 0.00 38 1017.9
20210924182413 81 150 1.0 7.0 0.00 0.00 0.00 43 1018.6
20210924181351 81 205 1.0 5.0 0.00 0.00 0.00 45 1018.8
20210924180420 80 239 2.0 7.0 0.00 0.00 0.00 45 1019.0
20210924174402 80 232 2.0 9.0 0.00 0.00 0.00 48 1019.2
20210924173354 80 219 2.0 6.0 0.00 0.00 0.00 48 1019.3
20210924172330 79 195 4.0 8.0 0.00 0.00 0.00 48 1019.4
20210924171324 79 223 4.0 10.0 0.00 0.00 0.00 48 1019.6
20210924170408 79 192 4.0 10.0 0.00 0.00 0.00 49 1019.7
20210924165352 78 200 2.0 9.0 0.00 0.00 0.00 50 1019.8
20210924164327 78 202 4.0 10.0 0.00 0.00 0.00 51 1020.0
20210924163410 78 293 1.0 8.0 0.00 0.00 0.00 54 1020.1
20210924162354 77 298 2.0 9.0 0.00 0.00 0.00 54 1020.3
20210924161336 76 250 2.0 7.0 0.00 0.00 0.00 57 1020.3
20210924160324 76 186 4.0 6.0 0.00 0.00 0.00 59 1020.2
20210924154409 74 223 3.0 8.0 0.00 0.00 0.00 61 1020.2
20210924152413 72 198 3.0 6.0 0.00 0.00 0.00 64 1020.2
20210924151354 71 236 4.0 7.0 0.00 0.00 0.00 64 1020.2
20210924150338 71 173 1.0 4.0 0.00 0.00 0.00 66 1020.1
20210924145422 70 194 2.0 5.0 0.00 0.00 0.00 64 1020.1
20210924144413 69 261 0.0 2.0 0.00 0.00 0.00 67 1020.0
20210924143351 68 280 1.0 3.0 0.00 0.00 0.00 68 1019.9
20210924142322 67 250 1.0 3.0 0.00 0.00 0.00 70 1019.8
20210924141404 66 228 1.0 4.0 0.00 0.00 0.00 72 1019.8
20210924140330 64 235 1.0 4.0 0.00 0.00 0.00 77 1019.7
20210924135416 62 252 2.0 4.0 0.00 0.00 0.00 80 1019.6
20210924134342 60 57 0.0 0.0 0.00 0.00 0.00 85 1019.7
20210924133335 58 57 0.0 0.0 0.00 0.00 0.00 91 1019.6
20210924132401 56 57 0.0 0.0 0.00 0.00 0.00 96 1019.5
20210924131344 55 57 0.0 0.0 0.00 0.00 0.00 95 1019.5